sensor_id;sensor_type;location;lat;lon;timestamp;P1;durP1;ratioP1;P2;durP2;ratioP2
3817;SDS011;1924;48.078;11.516;2024-02-26T00:01:11;28.20;;;0.80;;
3817;SDS011;1924;48.078;11.516;2024-02-26T00:03:39;28.50;;;0.80;;
3817;SDS011;1924;48.078;11.516;2024-02-26T00:06:07;28.50;;;0.80;;
3817;SDS011;1924;48.078;11.516;2024-02-26T00:08:34;28.50;;;0.80;;
3817;SDS011;1924;48.078;11.516;2024-02-26T00:11:00;28.30;;;0.80;;
3817;SDS011;1924;48.078;11.516;2024-02-26T00:13:27;28.20;;;0.80;;
3817;SDS011;1924;48.078;11.516;2024-02-26T00:15:54;28.40;;;0.80;;
3817;SDS011;1924;48.078;11.516;2024-02-26T00:18:21;28.10;;;0.80;;
3817;SDS011;1924;48.078;11.516;2024-02-26T00:20:49;28.30;;;0.80;;
3817;SDS011;1924;48.078;11.516;2024-02-26T00:23:16;28.40;;;0.80;;
3817;SDS011;1924;48.078;11.516;2024-02-26T00:25:42;28.40;;;0.80;;
3817;SDS011;1924;48.078;11.516;2024-02-26T00:28:09;28.50;;;0.80;;
3817;SDS011;1924;48.078;11.516;2024-02-26T00:30:38;28.50;;;0.80;;
3817;SDS011;1924;48.078;11.516;2024-02-26T00:33:05;28.40;;;0.80;;
3817;SDS011;1924;48.078;11.516;2024-02-26T00:35:32;28.50;;;0.80;;
3817;SDS011;1924;48.078;11.516;2024-02-26T00:38:00;28.30;;;0.80;;
3817;SDS011;1924;48.078;11.516;2024-02-26T00:40:28;28.50;;;0.80;;
3817;SDS011;1924;48.078;11.516;2024-02-26T00:42:55;28.30;;;0.83;;
3817;SDS011;1924;48.078;11.516;2024-02-26T00:45:21;28.50;;;0.80;;
3817;SDS011;1924;48.078;11.516;2024-02-26T00:47:48;28.40;;;0.80;;
3817;SDS011;1924;48.078;11.516;2024-02-26T00:50:15;28.50;;;0.80;;
3817;SDS011;1924;48.078;11.516;2024-02-26T00:52:42;28.30;;;0.80;;
3817;SDS011;1924;48.078;11.516;2024-02-26T00:55:10;28.40;;;0.80;;
3817;SDS011;1924;48.078;11.516;2024-02-26T00:57:37;28.30;;;0.80;;
3817;SDS011;1924;48.078;11.516;2024-02-26T01:00:06;28.30;;;0.80;;
3817;SDS011;1924;48.078;11.516;2024-02-26T01:02:34;28.40;;;0.80;;
3817;SDS011;1924;48.078;11.516;2024-02-26T01:05:01;28.20;;;0.80;;
3817;SDS011;1924;48.078;11.516;2024-02-26T01:07:28;28.47;;;0.80;;
3817;SDS011;1924;48.078;11.516;2024-02-26T01:09:58;28.50;;;0.80;;
3817;SDS011;1924;48.078;11.516;2024-02-26T05:03:01;28.00;;;0.90;;
3817;SDS011;1924;48.078;11.516;2024-02-26T05:05:28;27.97;;;0.80;;
3817;SDS011;1924;48.078;11.516;2024-02-26T05:07:55;27.80;;;0.80;;
3817;SDS011;1924;48.078;11.516;2024-02-26T05:10:22;27.90;;;0.80;;
3817;SDS011;1924;48.078;11.516;2024-02-26T05:12:48;27.70;;;0.80;;
3817;SDS011;1924;48.078;11.516;2024-02-26T05:15:15;28.00;;;0.80;;
3817;SDS011;1924;48.078;11.516;2024-02-26T05:17:44;27.90;;;0.80;;
3817;SDS011;1924;48.078;11.516;2024-02-26T05:20:11;27.70;;;0.80;;
3817;SDS011;1924;48.078;11.516;2024-02-26T05:22:38;27.80;;;0.80;;
3817;SDS011;1924;48.078;11.516;2024-02-26T05:25:05;27.80;;;0.80;;
3817;SDS011;1924;48.078;11.516;2024-02-26T05:27:32;27.83;;;0.90;;
3817;SDS011;1924;48.078;11.516;2024-02-26T05:29:58;27.90;;;0.80;;
3817;SDS011;1924;48.078;11.516;2024-02-26T05:32:25;27.80;;;0.80;;
3817;SDS011;1924;48.078;11.516;2024-02-26T05:34:53;27.83;;;0.80;;
3817;SDS011;1924;48.078;11.516;2024-02-26T05:37:20;27.70;;;0.80;;
3817;SDS011;1924;48.078;11.516;2024-02-26T05:39:47;27.90;;;0.80;;
3817;SDS011;1924;48.078;11.516;2024-02-26T05:42:14;27.70;;;0.80;;
3817;SDS011;1924;48.078;11.516;2024-02-26T05:44:41;27.90;;;0.80;;
3817;SDS011;1924;48.078;11.516;2024-02-26T05:47:08;27.90;;;0.80;;
3817;SDS011;1924;48.078;11.516;2024-02-26T05:49:34;27.70;;;0.80;;
3817;SDS011;1924;48.078;11.516;2024-02-26T05:52:02;27.80;;;0.80;;
3817;SDS011;1924;48.078;11.516;2024-02-26T05:54:29;27.80;;;0.90;;
3817;SDS011;1924;48.078;11.516;2024-02-26T05:56:56;27.80;;;0.80;;
3817;SDS011;1924;48.078;11.516;2024-02-26T05:59:23;27.90;;;0.80;;
3817;SDS011;1924;48.078;11.516;2024-02-26T06:01:50;27.50;;;0.80;;
3817;SDS011;1924;48.078;11.516;2024-02-26T06:04:17;27.80;;;0.80;;
3817;SDS011;1924;48.078;11.516;2024-02-26T06:06:43;27.60;;;0.80;;
3817;SDS011;1924;48.078;11.516;2024-02-26T06:09:12;27.80;;;0.80;;
3817;SDS011;1924;48.078;11.516;2024-02-26T06:11:39;27.80;;;0.80;;
3817;SDS011;1924;48.078;11.516;2024-02-26T06:14:05;27.90;;;0.80;;
3817;SDS011;1924;48.078;11.516;2024-02-26T06:16:32;27.80;;;0.80;;
3817;SDS011;1924;48.078;11.516;2024-02-26T06:18:59;27.60;;;0.80;;
3817;SDS011;1924;48.078;11.516;2024-02-26T06:21:26;27.80;;;0.80;;
3817;SDS011;1924;48.078;11.516;2024-02-26T06:23:53;27.80;;;0.80;;
3817;SDS011;1924;48.078;11.516;2024-02-26T06:26:21;27.90;;;0.80;;
3817;SDS011;1924;48.078;11.516;2024-02-26T06:28:48;27.90;;;0.80;;
3817;SDS011;1924;48.078;11.516;2024-02-26T06:31:14;27.80;;;0.80;;
3817;SDS011;1924;48.078;11.516;2024-02-26T06:33:42;27.80;;;0.80;;
3817;SDS011;1924;48.078;11.516;2024-02-26T06:36:09;27.60;;;0.80;;
3817;SDS011;1924;48.078;11.516;2024-02-26T06:38:35;27.80;;;0.80;;
3817;SDS011;1924;48.078;11.516;2024-02-26T06:41:02;27.67;;;0.80;;
3817;SDS011;1924;48.078;11.516;2024-02-26T06:43:30;27.70;;;0.80;;
3817;SDS011;1924;48.078;11.516;2024-02-26T06:45:57;27.50;;;0.80;;
3817;SDS011;1924;48.078;11.516;2024-02-26T06:48:24;27.80;;;0.80;;
3817;SDS011;1924;48.078;11.516;2024-02-26T06:50:51;27.73;;;0.80;;
3817;SDS011;1924;48.078;11.516;2024-02-26T06:53:17;27.80;;;0.80;;
3817;SDS011;1924;48.078;11.516;2024-02-26T06:55:44;27.60;;;0.80;;
3817;SDS011;1924;48.078;11.516;2024-02-26T06:58:11;27.77;;;0.80;;
3817;SDS011;1924;48.078;11.516;2024-02-26T07:00:40;27.80;;;0.80;;
3817;SDS011;1924;48.078;11.516;2024-02-26T07:03:06;27.50;;;0.80;;
3817;SDS011;1924;48.078;11.516;2024-02-26T07:05:33;27.80;;;0.80;;
3817;SDS011;1924;48.078;11.516;2024-02-26T07:08:00;27.50;;;0.80;;
3817;SDS011;1924;48.078;11.516;2024-02-26T07:10:26;27.70;;;0.80;;
3817;SDS011;1924;48.078;11.516;2024-02-26T07:12:53;27.90;;;0.80;;
3817;SDS011;1924;48.078;11.516;2024-02-26T07:15:20;27.80;;;0.80;;
3817;SDS011;1924;48.078;11.516;2024-02-26T07:17:48;27.80;;;0.80;;
3817;SDS011;1924;48.078;11.516;2024-02-26T07:20:15;27.80;;;0.80;;
3817;SDS011;1924;48.078;11.516;2024-02-26T07:22:43;27.80;;;0.80;;
3817;SDS011;1924;48.078;11.516;2024-02-26T07:25:10;27.70;;;0.80;;
3817;SDS011;1924;48.078;11.516;2024-02-26T07:27:38;27.80;;;0.80;;
3817;SDS011;1924;48.078;11.516;2024-02-26T07:30:06;27.90;;;0.80;;
3817;SDS011;1924;48.078;11.516;2024-02-26T07:32:34;28.10;;;0.80;;
3817;SDS011;1924;48.078;11.516;2024-02-26T07:35:01;28.00;;;0.80;;
3817;SDS011;1924;48.078;11.516;2024-02-26T07:37:28;28.00;;;0.80;;
3817;SDS011;1924;48.078;11.516;2024-02-26T07:39:55;28.07;;;0.80;;
3817;SDS011;1924;48.078;11.516;2024-02-26T07:42:21;28.10;;;0.80;;
3817;SDS011;1924;48.078;11.516;2024-02-26T07:44:48;28.20;;;0.80;;
3817;SDS011;1924;48.078;11.516;2024-02-26T07:47:15;28.00;;;0.80;;
3817;SDS011;1924;48.078;11.516;2024-02-26T07:49:42;28.20;;;0.80;;
3817;SDS011;1924;48.078;11.516;2024-02-26T07:52:10;27.90;;;0.80;;
3817;SDS011;1924;48.078;11.516;2024-02-26T07:54:36;28.10;;;0.80;;
3817;SDS011;1924;48.078;11.516;2024-02-26T07:57:03;28.20;;;0.80;;
3817;SDS011;1924;48.078;11.516;2024-02-26T07:59:31;28.10;;;0.80;;
3817;SDS011;1924;48.078;11.516;2024-02-26T08:01:57;28.23;;;0.80;;
3817;SDS011;1924;48.078;11.516;2024-02-26T08:04:25;28.23;;;0.80;;
3817;SDS011;1924;48.078;11.516;2024-02-26T08:06:52;28.00;;;0.80;;
3817;SDS011;1924;48.078;11.516;2024-02-26T08:09:20;28.00;;;0.80;;
3817;SDS011;1924;48.078;11.516;2024-02-26T08:11:47;28.30;;;0.80;;
3817;SDS011;1924;48.078;11.516;2024-02-26T08:14:14;28.20;;;0.80;;
3817;SDS011;1924;48.078;11.516;2024-02-26T08:16:40;28.30;;;0.80;;
3817;SDS011;1924;48.078;11.516;2024-02-26T08:19:07;28.20;;;0.80;;
3817;SDS011;1924;48.078;11.516;2024-02-26T08:21:35;28.20;;;0.80;;
3817;SDS011;1924;48.078;11.516;2024-02-26T08:24:02;28.20;;;0.80;;
3817;SDS011;1924;48.078;11.516;2024-02-26T08:26:31;28.30;;;0.80;;
3817;SDS011;1924;48.078;11.516;2024-02-26T08:28:58;28.20;;;0.80;;
3817;SDS011;1924;48.078;11.516;2024-02-26T08:31:24;28.30;;;0.80;;
3817;SDS011;1924;48.078;11.516;2024-02-26T08:33:52;28.30;;;0.80;;
3817;SDS011;1924;48.078;11.516;2024-02-26T08:36:19;28.30;;;0.80;;
3817;SDS011;1924;48.078;11.516;2024-02-26T08:38:45;28.37;;;0.80;;
3817;SDS011;1924;48.078;11.516;2024-02-26T08:41:12;28.50;;;0.80;;
3817;SDS011;1924;48.078;11.516;2024-02-26T08:43:41;28.50;;;0.80;;
3817;SDS011;1924;48.078;11.516;2024-02-26T08:46:08;28.50;;;0.80;;
3817;SDS011;1924;48.078;11.516;2024-02-26T08:48:35;28.50;;;0.80;;
3817;SDS011;1924;48.078;11.516;2024-02-26T08:51:04;28.50;;;0.80;;
3817;SDS011;1924;48.078;11.516;2024-02-26T08:53:31;28.50;;;0.80;;
3817;SDS011;1924;48.078;11.516;2024-02-26T08:55:58;28.60;;;0.80;;
3817;SDS011;1924;48.078;11.516;2024-02-26T08:58:25;28.37;;;0.80;;
3817;SDS011;1924;48.078;11.516;2024-02-26T09:00:54;28.50;;;0.80;;
3817;SDS011;1924;48.078;11.516;2024-02-26T09:03:21;28.40;;;0.80;;
3817;SDS011;1924;48.078;11.516;2024-02-26T09:05:48;28.30;;;0.80;;
3817;SDS011;1924;48.078;11.516;2024-02-26T09:08:15;28.30;;;0.80;;
3817;SDS011;1924;48.078;11.516;2024-02-26T09:10:41;28.50;;;0.80;;
3817;SDS011;1924;48.078;11.516;2024-02-26T09:13:08;28.50;;;0.80;;
3817;SDS011;1924;48.078;11.516;2024-02-26T09:15:35;28.60;;;0.80;;
3817;SDS011;1924;48.078;11.516;2024-02-26T09:18:03;28.73;;;0.80;;
3817;SDS011;1924;48.078;11.516;2024-02-26T09:20:30;28.60;;;0.80;;
3817;SDS011;1924;48.078;11.516;2024-02-26T09:22:57;28.67;;;0.80;;
3817;SDS011;1924;48.078;11.516;2024-02-26T09:25:23;28.60;;;0.80;;
3817;SDS011;1924;48.078;11.516;2024-02-26T09:27:50;28.70;;;0.80;;
3817;SDS011;1924;48.078;11.516;2024-02-26T09:30:18;28.70;;;0.80;;
3817;SDS011;1924;48.078;11.516;2024-02-26T09:32:45;28.50;;;0.80;;
3817;SDS011;1924;48.078;11.516;2024-02-26T09:35:14;28.60;;;0.80;;
3817;SDS011;1924;48.078;11.516;2024-02-26T09:37:41;28.70;;;0.80;;
3817;SDS011;1924;48.078;11.516;2024-02-26T09:40:09;28.67;;;0.80;;
3817;SDS011;1924;48.078;11.516;2024-02-26T09:42:38;28.90;;;0.80;;
3817;SDS011;1924;48.078;11.516;2024-02-26T09:45:10;28.70;;;0.80;;
3817;SDS011;1924;48.078;11.516;2024-02-26T09:47:40;28.80;;;0.90;;
3817;SDS011;1924;48.078;11.516;2024-02-26T09:50:09;28.70;;;0.80;;
3817;SDS011;1924;48.078;11.516;2024-02-26T09:52:38;28.77;;;0.80;;
3817;SDS011;1924;48.078;11.516;2024-02-26T09:55:07;29.70;;;1.20;;
3817;SDS011;1924;48.078;11.516;2024-02-26T09:57:35;29.10;;;0.80;;
3817;SDS011;1924;48.078;11.516;2024-02-26T10:00:03;29.27;;;0.80;;
3817;SDS011;1924;48.078;11.516;2024-02-26T10:02:34;29.20;;;0.80;;
3817;SDS011;1924;48.078;11.516;2024-02-26T10:05:04;29.50;;;0.80;;
3817;SDS011;1924;48.078;11.516;2024-02-26T10:07:33;29.20;;;0.80;;
3817;SDS011;1924;48.078;11.516;2024-02-26T10:10:02;29.30;;;0.80;;
3817;SDS011;1924;48.078;11.516;2024-02-26T10:12:30;29.23;;;0.80;;
3817;SDS011;1924;48.078;11.516;2024-02-26T10:14:57;29.40;;;0.80;;
3817;SDS011;1924;48.078;11.516;2024-02-26T10:17:24;29.40;;;0.80;;
3817;SDS011;1924;48.078;11.516;2024-02-26T10:19:52;29.43;;;0.90;;
3817;SDS011;1924;48.078;11.516;2024-02-26T10:22:21;29.30;;;0.80;;
3817;SDS011;1924;48.078;11.516;2024-02-26T10:24:48;29.30;;;0.90;;
3817;SDS011;1924;48.078;11.516;2024-02-26T10:27:16;29.40;;;0.90;;
3817;SDS011;1924;48.078;11.516;2024-02-26T10:29:44;29.20;;;0.80;;
3817;SDS011;1924;48.078;11.516;2024-02-26T10:32:12;29.40;;;0.80;;
3817;SDS011;1924;48.078;11.516;2024-02-26T10:34:39;29.27;;;0.80;;
3817;SDS011;1924;48.078;11.516;2024-02-26T10:37:06;29.33;;;0.80;;
3817;SDS011;1924;48.078;11.516;2024-02-26T10:39:36;30.97;;;0.90;;
3817;SDS011;1924;48.078;11.516;2024-02-26T10:42:03;29.10;;;0.80;;
3817;SDS011;1924;48.078;11.516;2024-02-26T10:44:36;29.10;;;0.80;;
3817;SDS011;1924;48.078;11.516;2024-02-26T10:47:02;29.40;;;0.80;;
3817;SDS011;1924;48.078;11.516;2024-02-26T10:49:30;29.50;;;0.80;;
3817;SDS011;1924;48.078;11.516;2024-02-26T10:51:56;29.30;;;0.80;;
3817;SDS011;1924;48.078;11.516;2024-02-26T10:54:25;29.60;;;0.80;;
3817;SDS011;1924;48.078;11.516;2024-02-26T10:56:53;29.47;;;0.80;;
3817;SDS011;1924;48.078;11.516;2024-02-26T10:59:22;29.60;;;0.80;;
3817;SDS011;1924;48.078;11.516;2024-02-26T11:01:50;29.60;;;0.80;;
3817;SDS011;1924;48.078;11.516;2024-02-26T11:04:17;29.77;;;0.80;;
3817;SDS011;1924;48.078;11.516;2024-02-26T11:06:44;29.83;;;0.80;;
3817;SDS011;1924;48.078;11.516;2024-02-26T11:09:12;30.23;;;0.83;;
3817;SDS011;1924;48.078;11.516;2024-02-26T11:11:40;30.10;;;0.80;;
3817;SDS011;1924;48.078;11.516;2024-02-26T11:14:08;30.20;;;0.80;;
3817;SDS011;1924;48.078;11.516;2024-02-26T11:16:36;30.03;;;0.80;;
3817;SDS011;1924;48.078;11.516;2024-02-26T11:19:06;30.20;;;0.80;;
3817;SDS011;1924;48.078;11.516;2024-02-26T11:21:35;30.10;;;0.80;;
3817;SDS011;1924;48.078;11.516;2024-02-26T11:24:07;29.97;;;0.80;;
3817;SDS011;1924;48.078;11.516;2024-02-26T11:26:36;29.80;;;0.80;;
3817;SDS011;1924;48.078;11.516;2024-02-26T11:29:07;29.77;;;0.80;;
3817;SDS011;1924;48.078;11.516;2024-02-26T11:31:36;29.70;;;0.80;;
3817;SDS011;1924;48.078;11.516;2024-02-26T11:34:04;29.80;;;0.80;;
3817;SDS011;1924;48.078;11.516;2024-02-26T11:36:33;30.00;;;0.80;;
3817;SDS011;1924;48.078;11.516;2024-02-26T11:39:00;30.00;;;0.80;;
3817;SDS011;1924;48.078;11.516;2024-02-26T11:41:27;30.00;;;0.80;;
3817;SDS011;1924;48.078;11.516;2024-02-26T11:43:57;29.80;;;0.80;;
3817;SDS011;1924;48.078;11.516;2024-02-26T11:46:26;29.97;;;0.80;;
3817;SDS011;1924;48.078;11.516;2024-02-26T11:48:54;30.10;;;0.80;;
3817;SDS011;1924;48.078;11.516;2024-02-26T11:51:26;30.20;;;0.80;;
3817;SDS011;1924;48.078;11.516;2024-02-26T11:53:54;30.23;;;0.80;;
3817;SDS011;1924;48.078;11.516;2024-02-26T11:56:22;30.40;;;0.80;;
3817;SDS011;1924;48.078;11.516;2024-02-26T11:58:58;30.60;;;0.80;;
3817;SDS011;1924;48.078;11.516;2024-02-26T12:01:35;30.87;;;0.80;;
3817;SDS011;1924;48.078;11.516;2024-02-26T12:04:02;30.90;;;0.80;;
3817;SDS011;1924;48.078;11.516;2024-02-26T12:06:33;30.90;;;0.80;;
3817;SDS011;1924;48.078;11.516;2024-02-26T12:09:10;31.00;;;0.80;;
3817;SDS011;1924;48.078;11.516;2024-02-26T12:11:38;30.80;;;0.80;;
3817;SDS011;1924;48.078;11.516;2024-02-26T12:14:05;30.77;;;0.80;;
3817;SDS011;1924;48.078;11.516;2024-02-26T12:16:34;30.53;;;0.80;;
3817;SDS011;1924;48.078;11.516;2024-02-26T12:19:03;30.60;;;0.80;;
3817;SDS011;1924;48.078;11.516;2024-02-26T12:21:32;30.43;;;0.80;;
3817;SDS011;1924;48.078;11.516;2024-02-26T12:24:07;30.47;;;0.80;;
3817;SDS011;1924;48.078;11.516;2024-02-26T12:26:38;30.40;;;0.80;;
3817;SDS011;1924;48.078;11.516;2024-02-26T12:29:05;30.70;;;0.80;;
3817;SDS011;1924;48.078;11.516;2024-02-26T12:31:32;30.57;;;0.80;;
3817;SDS011;1924;48.078;11.516;2024-02-26T12:33:59;30.67;;;0.80;;
3817;SDS011;1924;48.078;11.516;2024-02-26T12:36:26;30.67;;;0.80;;
3817;SDS011;1924;48.078;11.516;2024-02-26T12:38:55;30.70;;;0.80;;
3817;SDS011;1924;48.078;11.516;2024-02-26T12:41:22;30.60;;;0.80;;
3817;SDS011;1924;48.078;11.516;2024-02-26T12:43:49;30.30;;;0.80;;
3817;SDS011;1924;48.078;11.516;2024-02-26T12:46:15;30.30;;;0.80;;
3817;SDS011;1924;48.078;11.516;2024-02-26T12:48:42;30.60;;;0.80;;
3817;SDS011;1924;48.078;11.516;2024-02-26T12:51:10;30.40;;;0.80;;
3817;SDS011;1924;48.078;11.516;2024-02-26T12:53:38;30.37;;;0.80;;
3817;SDS011;1924;48.078;11.516;2024-02-26T12:56:06;30.57;;;0.80;;
3817;SDS011;1924;48.078;11.516;2024-02-26T12:58:35;30.60;;;0.80;;
3817;SDS011;1924;48.078;11.516;2024-02-26T13:01:03;30.73;;;0.80;;
3817;SDS011;1924;48.078;11.516;2024-02-26T13:03:30;30.60;;;0.80;;
3817;SDS011;1924;48.078;11.516;2024-02-26T13:05:58;30.90;;;0.80;;
3817;SDS011;1924;48.078;11.516;2024-02-26T13:08:26;30.87;;;0.80;;
3817;SDS011;1924;48.078;11.516;2024-02-26T13:10:53;30.87;;;0.80;;
3817;SDS011;1924;48.078;11.516;2024-02-26T13:13:22;30.70;;;0.80;;
3817;SDS011;1924;48.078;11.516;2024-02-26T13:15:49;30.90;;;0.80;;
3817;SDS011;1924;48.078;11.516;2024-02-26T13:18:15;30.70;;;0.80;;
3817;SDS011;1924;48.078;11.516;2024-02-26T13:20:42;30.90;;;0.80;;
3817;SDS011;1924;48.078;11.516;2024-02-26T13:23:11;30.77;;;0.80;;
3817;SDS011;1924;48.078;11.516;2024-02-26T13:25:38;31.10;;;0.90;;
3817;SDS011;1924;48.078;11.516;2024-02-26T13:28:06;30.80;;;0.80;;
3817;SDS011;1924;48.078;11.516;2024-02-26T13:30:35;30.77;;;0.80;;
3817;SDS011;1924;48.078;11.516;2024-02-26T13:33:09;31.00;;;0.90;;
3817;SDS011;1924;48.078;11.516;2024-02-26T13:35:36;30.87;;;0.90;;
3817;SDS011;1924;48.078;11.516;2024-02-26T13:38:04;30.70;;;0.80;;
3817;SDS011;1924;48.078;11.516;2024-02-26T13:40:31;30.70;;;0.80;;
3817;SDS011;1924;48.078;11.516;2024-02-26T13:42:59;30.53;;;0.80;;
3817;SDS011;1924;48.078;11.516;2024-02-26T13:45:25;30.37;;;0.80;;
3817;SDS011;1924;48.078;11.516;2024-02-26T13:47:55;30.20;;;0.80;;
3817;SDS011;1924;48.078;11.516;2024-02-26T13:50:28;30.27;;;0.80;;
3817;SDS011;1924;48.078;11.516;2024-02-26T13:52:54;30.40;;;0.80;;
3817;SDS011;1924;48.078;11.516;2024-02-26T13:55:22;30.50;;;0.80;;
3817;SDS011;1924;48.078;11.516;2024-02-26T13:57:51;30.40;;;0.80;;
3817;SDS011;1924;48.078;11.516;2024-02-26T14:00:19;30.60;;;0.80;;
3817;SDS011;1924;48.078;11.516;2024-02-26T14:02:46;30.40;;;0.80;;
3817;SDS011;1924;48.078;11.516;2024-02-26T14:05:14;30.27;;;0.80;;
3817;SDS011;1924;48.078;11.516;2024-02-26T14:07:41;30.30;;;0.80;;
3817;SDS011;1924;48.078;11.516;2024-02-26T14:10:08;30.40;;;0.80;;
3817;SDS011;1924;48.078;11.516;2024-02-26T14:12:37;30.27;;;0.80;;
3817;SDS011;1924;48.078;11.516;2024-02-26T14:15:05;30.47;;;0.80;;
3817;SDS011;1924;48.078;11.516;2024-02-26T14:17:33;30.37;;;0.80;;
3817;SDS011;1924;48.078;11.516;2024-02-26T14:19:59;30.20;;;0.80;;
3817;SDS011;1924;48.078;11.516;2024-02-26T14:22:28;30.30;;;0.80;;
3817;SDS011;1924;48.078;11.516;2024-02-26T14:24:58;30.20;;;0.80;;
3817;SDS011;1924;48.078;11.516;2024-02-26T14:27:25;30.20;;;0.80;;
3817;SDS011;1924;48.078;11.516;2024-02-26T14:29:52;30.17;;;0.80;;
3817;SDS011;1924;48.078;11.516;2024-02-26T14:32:20;30.20;;;0.80;;
3817;SDS011;1924;48.078;11.516;2024-02-26T14:34:47;30.03;;;0.80;;
3817;SDS011;1924;48.078;11.516;2024-02-26T14:37:13;30.10;;;0.80;;
3817;SDS011;1924;48.078;11.516;2024-02-26T14:39:42;30.20;;;0.80;;
3817;SDS011;1924;48.078;11.516;2024-02-26T14:42:09;30.10;;;0.80;;
3817;SDS011;1924;48.078;11.516;2024-02-26T14:44:35;30.00;;;0.80;;
3817;SDS011;1924;48.078;11.516;2024-02-26T14:47:02;30.00;;;0.80;;
3817;SDS011;1924;48.078;11.516;2024-02-26T14:49:29;30.10;;;0.80;;
3817;SDS011;1924;48.078;11.516;2024-02-26T14:51:56;30.30;;;0.80;;
3817;SDS011;1924;48.078;11.516;2024-02-26T14:54:23;30.10;;;0.80;;
3817;SDS011;1924;48.078;11.516;2024-02-26T14:56:51;30.07;;;0.80;;
3817;SDS011;1924;48.078;11.516;2024-02-26T14:59:18;30.20;;;0.80;;
3817;SDS011;1924;48.078;11.516;2024-02-26T15:01:45;30.10;;;0.80;;
3817;SDS011;1924;48.078;11.516;2024-02-26T15:04:11;30.10;;;0.80;;
3817;SDS011;1924;48.078;11.516;2024-02-26T15:06:38;30.10;;;0.80;;
3817;SDS011;1924;48.078;11.516;2024-02-26T15:09:05;29.97;;;0.80;;
3817;SDS011;1924;48.078;11.516;2024-02-26T15:11:32;30.00;;;0.80;;
3817;SDS011;1924;48.078;11.516;2024-02-26T15:14:00;30.10;;;0.80;;
3817;SDS011;1924;48.078;11.516;2024-02-26T15:16:28;30.07;;;0.80;;
3817;SDS011;1924;48.078;11.516;2024-02-26T15:18:55;30.07;;;0.80;;
3817;SDS011;1924;48.078;11.516;2024-02-26T15:21:22;30.00;;;0.80;;
3817;SDS011;1924;48.078;11.516;2024-02-26T15:23:49;30.30;;;0.80;;
3817;SDS011;1924;48.078;11.516;2024-02-26T15:26:18;30.00;;;0.80;;
3817;SDS011;1924;48.078;11.516;2024-02-26T15:28:44;30.47;;;0.83;;
3817;SDS011;1924;48.078;11.516;2024-02-26T15:31:13;30.07;;;0.80;;
3817;SDS011;1924;48.078;11.516;2024-02-26T15:33:41;30.20;;;0.80;;
3817;SDS011;1924;48.078;11.516;2024-02-26T15:36:08;30.17;;;0.80;;
3817;SDS011;1924;48.078;11.516;2024-02-26T15:38:35;30.23;;;0.80;;
3817;SDS011;1924;48.078;11.516;2024-02-26T15:41:03;30.20;;;0.80;;
3817;SDS011;1924;48.078;11.516;2024-02-26T15:43:37;30.30;;;0.80;;
3817;SDS011;1924;48.078;11.516;2024-02-26T15:46:03;30.50;;;0.80;;
3817;SDS011;1924;48.078;11.516;2024-02-26T15:48:32;30.30;;;0.80;;
3817;SDS011;1924;48.078;11.516;2024-02-26T15:50:59;30.37;;;0.80;;
3817;SDS011;1924;48.078;11.516;2024-02-26T15:53:25;30.50;;;0.80;;
3817;SDS011;1924;48.078;11.516;2024-02-26T15:55:52;30.30;;;0.80;;
3817;SDS011;1924;48.078;11.516;2024-02-26T15:58:19;30.40;;;0.80;;
3817;SDS011;1924;48.078;11.516;2024-02-26T16:00:45;30.10;;;0.80;;
3817;SDS011;1924;48.078;11.516;2024-02-26T16:03:12;30.30;;;0.80;;
3817;SDS011;1924;48.078;11.516;2024-02-26T16:05:40;30.73;;;0.80;;
3817;SDS011;1924;48.078;11.516;2024-02-26T16:08:09;30.27;;;0.80;;
3817;SDS011;1924;48.078;11.516;2024-02-26T16:10:44;30.27;;;0.80;;
3817;SDS011;1924;48.078;11.516;2024-02-26T16:13:11;30.50;;;0.80;;
3817;SDS011;1924;48.078;11.516;2024-02-26T16:15:39;30.20;;;0.80;;
3817;SDS011;1924;48.078;11.516;2024-02-26T16:18:10;30.30;;;0.80;;
3817;SDS011;1924;48.078;11.516;2024-02-26T16:20:37;30.20;;;0.80;;
3817;SDS011;1924;48.078;11.516;2024-02-26T16:23:05;30.30;;;0.80;;
3817;SDS011;1924;48.078;11.516;2024-02-26T16:25:33;30.10;;;0.80;;
3817;SDS011;1924;48.078;11.516;2024-02-26T16:28:00;30.10;;;0.80;;
3817;SDS011;1924;48.078;11.516;2024-02-26T16:30:27;30.10;;;0.80;;
3817;SDS011;1924;48.078;11.516;2024-02-26T16:32:53;30.20;;;0.80;;
3817;SDS011;1924;48.078;11.516;2024-02-26T16:35:20;29.90;;;0.80;;
3817;SDS011;1924;48.078;11.516;2024-02-26T16:37:47;29.87;;;0.80;;
3817;SDS011;1924;48.078;11.516;2024-02-26T16:40:15;30.10;;;0.80;;
3817;SDS011;1924;48.078;11.516;2024-02-26T16:42:42;30.10;;;0.80;;
3817;SDS011;1924;48.078;11.516;2024-02-26T16:45:09;30.10;;;0.80;;
3817;SDS011;1924;48.078;11.516;2024-02-26T16:47:37;30.03;;;0.90;;
3817;SDS011;1924;48.078;11.516;2024-02-26T16:50:07;29.90;;;0.80;;
3817;SDS011;1924;48.078;11.516;2024-02-26T16:52:34;30.00;;;0.80;;
3817;SDS011;1924;48.078;11.516;2024-02-26T16:55:01;30.10;;;0.80;;
3817;SDS011;1924;48.078;11.516;2024-02-26T16:57:30;29.97;;;0.80;;
3817;SDS011;1924;48.078;11.516;2024-02-26T16:59:57;29.90;;;0.80;;
3817;SDS011;1924;48.078;11.516;2024-02-26T17:02:24;30.00;;;0.80;;
3817;SDS011;1924;48.078;11.516;2024-02-26T17:04:51;30.00;;;0.80;;
3817;SDS011;1924;48.078;11.516;2024-02-26T17:07:17;30.00;;;0.80;;
3817;SDS011;1924;48.078;11.516;2024-02-26T17:09:44;30.00;;;0.80;;
3817;SDS011;1924;48.078;11.516;2024-02-26T17:12:11;30.00;;;0.80;;
3817;SDS011;1924;48.078;11.516;2024-02-26T17:14:40;29.87;;;0.80;;
3817;SDS011;1924;48.078;11.516;2024-02-26T17:17:06;29.90;;;0.80;;
3817;SDS011;1924;48.078;11.516;2024-02-26T17:19:33;29.93;;;0.80;;
3817;SDS011;1924;48.078;11.516;2024-02-26T17:22:00;29.80;;;0.80;;
3817;SDS011;1924;48.078;11.516;2024-02-26T17:24:27;29.80;;;0.80;;
3817;SDS011;1924;48.078;11.516;2024-02-26T17:26:53;29.90;;;0.80;;
3817;SDS011;1924;48.078;11.516;2024-02-26T17:29:20;29.90;;;0.80;;
3817;SDS011;1924;48.078;11.516;2024-02-26T17:31:48;29.90;;;0.80;;
3817;SDS011;1924;48.078;11.516;2024-02-26T17:34:15;29.80;;;0.80;;
3817;SDS011;1924;48.078;11.516;2024-02-26T17:36:42;30.00;;;0.80;;
3817;SDS011;1924;48.078;11.516;2024-02-26T17:39:08;30.00;;;0.80;;
3817;SDS011;1924;48.078;11.516;2024-02-26T17:41:36;29.83;;;0.80;;
3817;SDS011;1924;48.078;11.516;2024-02-26T17:44:03;29.93;;;0.80;;
3817;SDS011;1924;48.078;11.516;2024-02-26T17:46:30;29.87;;;0.80;;
3817;SDS011;1924;48.078;11.516;2024-02-26T17:48:58;29.90;;;0.80;;
3817;SDS011;1924;48.078;11.516;2024-02-26T17:51:25;30.10;;;0.80;;
3817;SDS011;1924;48.078;11.516;2024-02-26T17:53:52;30.10;;;0.80;;
3817;SDS011;1924;48.078;11.516;2024-02-26T17:56:19;30.00;;;0.80;;
3817;SDS011;1924;48.078;11.516;2024-02-26T17:58:46;30.10;;;0.80;;
3817;SDS011;1924;48.078;11.516;2024-02-26T18:01:13;29.90;;;0.80;;
3817;SDS011;1924;48.078;11.516;2024-02-26T18:03:40;30.00;;;0.80;;
3817;SDS011;1924;48.078;11.516;2024-02-26T18:06:08;29.97;;;0.80;;
3817;SDS011;1924;48.078;11.516;2024-02-26T18:08:35;30.30;;;0.80;;
3817;SDS011;1924;48.078;11.516;2024-02-26T18:11:02;30.10;;;0.80;;
3817;SDS011;1924;48.078;11.516;2024-02-26T18:13:29;30.00;;;0.80;;
3817;SDS011;1924;48.078;11.516;2024-02-26T18:15:55;30.00;;;0.80;;
3817;SDS011;1924;48.078;11.516;2024-02-26T18:18:23;30.00;;;0.80;;
3817;SDS011;1924;48.078;11.516;2024-02-26T18:20:50;30.00;;;0.80;;
3817;SDS011;1924;48.078;11.516;2024-02-26T18:23:18;30.10;;;0.80;;
3817;SDS011;1924;48.078;11.516;2024-02-26T18:25:45;30.10;;;0.80;;
3817;SDS011;1924;48.078;11.516;2024-02-26T18:28:12;30.10;;;0.80;;
3817;SDS011;1924;48.078;11.516;2024-02-26T18:30:39;30.00;;;0.80;;
3817;SDS011;1924;48.078;11.516;2024-02-26T18:33:09;30.10;;;0.80;;
3817;SDS011;1924;48.078;11.516;2024-02-26T18:35:36;30.07;;;0.80;;
3817;SDS011;1924;48.078;11.516;2024-02-26T18:38:03;30.00;;;0.80;;
3817;SDS011;1924;48.078;11.516;2024-02-26T18:40:31;29.80;;;0.80;;